createdAt,value
2022-10-19T00:01:17.124Z,14.09
2022-10-19T00:06:29.658Z,14.10
2022-10-19T00:09:18.695Z,14.09
2022-10-19T00:11:49.951Z,14.15
2022-10-19T00:14:23.659Z,14.11
2022-10-19T00:16:53.163Z,14.02
2022-10-19T00:19:24.969Z,14.01
2022-10-19T00:21:53.298Z,13.95
2022-10-19T00:24:21.361Z,13.86
2022-10-19T00:26:49.462Z,13.82
2022-10-19T00:29:17.876Z,13.75
2022-10-19T00:31:45.654Z,13.73
2022-10-19T00:34:13.469Z,13.72
2022-10-19T00:36:42.067Z,13.68
2022-10-19T00:39:16.384Z,13.66
2022-10-19T00:41:46.260Z,13.63
2022-10-19T00:44:13.968Z,13.62
2022-10-19T00:46:44.258Z,13.59
2022-10-19T00:49:14.017Z,13.52
2022-10-19T00:51:46.570Z,13.48
2022-10-19T00:54:16.094Z,13.41
2022-10-19T00:56:46.308Z,13.40
2022-10-19T00:59:18.694Z,13.41
2022-10-19T01:01:48.144Z,13.36
2022-10-19T01:04:15.971Z,13.30
2022-10-19T01:06:43.813Z,13.25
2022-10-19T01:09:11.921Z,13.17
2022-10-19T01:12:01.482Z,13.12
2022-10-19T01:14:41.226Z,13.09
2022-10-19T01:17:50.853Z,13.04
2022-10-19T01:20:49.726Z,12.99
2022-10-19T01:23:23.293Z,12.95
2022-10-19T01:25:59.899Z,12.99
2022-10-19T01:29:08.580Z,13.00
2022-10-19T01:31:58.765Z,12.98
2022-10-19T01:34:32.325Z,12.93
2022-10-19T01:37:16.609Z,12.94
2022-10-19T01:39:53.177Z,12.96
2022-10-19T01:43:17.042Z,12.99
2022-10-19T01:46:06.176Z,12.94
2022-10-19T01:48:38.036Z,12.92
2022-10-19T01:51:12.366Z,12.86
2022-10-19T01:53:46.520Z,12.88
2022-10-19T01:56:17.637Z,12.87
2022-10-19T01:58:47.238Z,12.84
2022-10-19T02:01:19.848Z,12.79
2022-10-19T02:03:50.460Z,12.75
2022-10-19T02:06:18.841Z,12.72
2022-10-19T02:08:49.106Z,12.70
2022-10-19T02:11:19.035Z,12.67
2022-10-19T02:13:51.961Z,12.66
2022-10-19T02:16:25.883Z,12.63
2022-10-19T02:18:55.671Z,12.64
2022-10-19T02:21:23.847Z,12.63
2022-10-19T02:23:54.063Z,12.59
2022-10-19T02:26:22.586Z,12.55
2022-10-19T02:28:51.177Z,12.53
2022-10-19T02:31:18.866Z,12.56
2022-10-19T02:33:46.917Z,12.54
2022-10-19T02:36:14.902Z,12.53
2022-10-19T02:38:42.708Z,12.52
2022-10-19T02:41:22.197Z,12.52
2022-10-19T02:43:56.810Z,12.52
2022-10-19T02:46:37.909Z,12.48
2022-10-19T02:49:08.220Z,12.44
2022-10-19T02:51:38.336Z,12.44
2022-10-19T02:54:08.166Z,12.45
2022-10-19T02:56:36.016Z,12.49
2022-10-19T02:59:04.013Z,12.48
2022-10-19T03:01:31.914Z,12.45
2022-10-19T03:03:59.642Z,12.43
2022-10-19T03:06:27.341Z,12.40
2022-10-19T03:08:55.293Z,12.37
2022-10-19T03:11:23.054Z,12.35
2022-10-19T03:13:50.810Z,12.34
2022-10-19T03:16:18.701Z,12.30
2022-10-19T03:18:49.097Z,12.29
2022-10-19T03:21:17.500Z,12.30
2022-10-19T03:23:45.387Z,12.34
2022-10-19T03:26:15.870Z,12.32
2022-10-19T03:28:43.799Z,12.29
2022-10-19T03:31:12.050Z,12.24
2022-10-19T03:33:39.837Z,12.23
2022-10-19T03:36:13.439Z,12.26
2022-10-19T03:38:41.310Z,12.22
2022-10-19T03:41:09.594Z,12.17
2022-10-19T03:43:37.460Z,12.09
2022-10-19T03:46:05.446Z,12.06
2022-10-19T03:48:33.920Z,12.05
2022-10-19T03:51:05.357Z,12.03
2022-10-19T03:53:33.644Z,12.00
2022-10-19T03:56:03.759Z,11.98
2022-10-19T03:58:33.993Z,11.98
2022-10-19T04:01:02.922Z,12.00
2022-10-19T04:03:30.889Z,11.99
2022-10-19T04:06:07.006Z,11.97
2022-10-19T04:08:35.081Z,11.94
2022-10-19T04:11:06.033Z,11.96
2022-10-19T04:13:35.380Z,12.00
2022-10-19T04:16:03.334Z,12.00
2022-10-19T04:18:31.481Z,12.02
2022-10-19T04:21:04.839Z,12.04
2022-10-19T04:23:35.324Z,12.06
2022-10-19T04:26:05.768Z,12.08
2022-10-19T04:28:34.922Z,12.07
2022-10-19T04:31:04.650Z,12.07
2022-10-19T04:33:33.623Z,12.07
2022-10-19T04:36:03.482Z,12.09
2022-10-19T04:38:32.777Z,12.10
2022-10-19T04:41:05.705Z,12.07
2022-10-19T04:43:33.932Z,12.00
2022-10-19T04:46:07.358Z,11.98
2022-10-19T04:48:36.738Z,12.00
2022-10-19T04:51:05.551Z,12.00
2022-10-19T04:53:34.629Z,11.98
2022-10-19T04:56:08.409Z,12.02
2022-10-19T04:58:36.216Z,12.03
2022-10-19T05:01:12.862Z,12.00
2022-10-19T05:03:41.282Z,11.97
2022-10-19T05:06:10.501Z,11.95
2022-10-19T05:08:39.080Z,11.93
2022-10-19T05:11:10.109Z,11.93
2022-10-19T05:13:38.594Z,11.94
2022-10-19T05:16:10.969Z,11.99
2022-10-19T05:18:39.453Z,11.97
2022-10-19T05:21:10.702Z,11.96
2022-10-19T05:23:39.698Z,11.94
2022-10-19T05:26:13.300Z,11.93
2022-10-19T05:28:41.299Z,11.94
2022-10-19T05:31:16.399Z,11.95
2022-10-19T05:33:45.102Z,11.97
2022-10-19T05:36:28.750Z,11.94
2022-10-19T05:38:58.008Z,11.93
2022-10-19T05:41:26.994Z,11.91
2022-10-19T05:43:59.925Z,11.86
2022-10-19T05:46:29.712Z,11.83
2022-10-19T05:48:58.523Z,11.86
2022-10-19T05:51:27.622Z,11.91
2022-10-19T05:53:56.826Z,11.92
2022-10-19T05:56:27.574Z,11.91
2022-10-19T05:58:56.969Z,11.89
2022-10-19T06:01:25.098Z,11.92
2022-10-19T06:03:54.639Z,11.92
2022-10-19T06:06:23.348Z,11.92
2022-10-19T06:08:52.446Z,11.97
2022-10-19T06:11:26.047Z,11.98
2022-10-19T06:13:56.197Z,12.04
2022-10-19T06:16:26.044Z,12.12
2022-10-19T06:18:54.663Z,12.14
2022-10-19T06:21:25.118Z,12.11
2022-10-19T06:23:55.531Z,12.09
2022-10-19T06:26:24.620Z,12.05
2022-10-19T06:28:56.074Z,12.04
2022-10-19T06:31:23.851Z,12.02
2022-10-19T06:33:51.582Z,12.01
2022-10-19T06:36:22.323Z,12.01
2022-10-19T06:38:50.628Z,12.02
2022-10-19T06:41:18.328Z,12.07
2022-10-19T06:43:51.146Z,12.05
2022-10-19T06:46:22.125Z,12.08
2022-10-19T06:49:08.153Z,12.10
2022-10-19T06:51:35.907Z,12.17
2022-10-19T06:54:03.744Z,12.21
2022-10-19T06:56:31.531Z,12.23
2022-10-19T06:58:59.418Z,12.19
2022-10-19T07:01:27.274Z,12.17
2022-10-19T07:03:55.437Z,12.19
2022-10-19T07:06:24.356Z,12.22
2022-10-19T07:08:53.239Z,12.27
2022-10-19T07:11:22.743Z,12.33
2022-10-19T07:13:52.761Z,12.37
2022-10-19T07:16:21.721Z,12.48
2022-10-19T07:18:53.534Z,12.59
2022-10-19T07:21:23.452Z,12.70
2022-10-19T07:23:51.724Z,12.75
2022-10-19T07:26:27.351Z,12.70
2022-10-19T07:28:57.222Z,12.69
2022-10-19T07:31:27.405Z,12.70
2022-10-19T07:34:01.631Z,12.76
2022-10-19T07:36:31.446Z,12.75
2022-10-19T07:39:01.578Z,12.73
2022-10-19T07:41:29.304Z,12.73
2022-10-19T07:43:58.118Z,12.78
2022-10-19T07:46:37.098Z,12.83
2022-10-19T07:49:13.274Z,12.81
2022-10-19T07:51:41.242Z,12.85
2022-10-19T07:54:09.252Z,12.88
2022-10-19T07:56:37.534Z,12.87
2022-10-19T07:59:05.926Z,12.86
2022-10-19T08:01:45.003Z,12.95
2022-10-19T08:04:49.006Z,13.10
2022-10-19T08:07:00.963Z,13.13
2022-10-19T08:09:51.663Z,13.15
2022-10-19T08:12:16.424Z,13.11
2022-10-19T08:14:44.087Z,13.04
2022-10-19T08:17:16.663Z,12.95
2022-10-19T08:19:47.345Z,12.85
2022-10-19T08:22:16.312Z,12.76
2022-10-19T08:24:44.083Z,12.71
2022-10-19T08:27:11.976Z,12.73
2022-10-19T08:29:39.668Z,12.70
2022-10-19T08:32:07.891Z,12.71
2022-10-19T08:34:35.975Z,12.68
2022-10-19T08:37:10.460Z,12.70
2022-10-19T08:39:48.120Z,12.68
2022-10-19T08:42:24.957Z,12.73
2022-10-19T08:45:01.970Z,12.71
2022-10-19T08:47:58.776Z,12.71
2022-10-19T08:50:33.201Z,12.77
2022-10-19T08:53:04.752Z,12.79
2022-10-19T08:55:52.841Z,12.81
2022-10-19T08:58:40.858Z,12.87
2022-10-19T09:01:22.214Z,13.02
2022-10-19T09:04:02.049Z,13.08
2022-10-19T09:06:52.728Z,13.03
2022-10-19T09:09:21.315Z,13.04
2022-10-19T09:11:52.973Z,13.11
2022-10-19T09:14:46.325Z,13.17
2022-10-19T09:17:17.095Z,13.24
2022-10-19T09:19:45.856Z,13.24
2022-10-19T09:22:25.182Z,13.22
2022-10-19T09:24:58.466Z,13.20
2022-10-19T09:27:34.755Z,13.11
2022-10-19T09:30:06.614Z,12.99
2022-10-19T09:32:39.123Z,12.92
2022-10-19T09:35:17.962Z,12.91
2022-10-19T09:37:49.352Z,12.88
2022-10-19T09:40:23.990Z,12.93
2022-10-19T09:42:57.395Z,12.91
2022-10-19T09:45:43.567Z,12.95
2022-10-19T09:48:23.718Z,12.90
2022-10-19T09:51:00.407Z,12.87
2022-10-19T09:53:29.721Z,12.85
2022-10-19T09:56:00.633Z,12.85
2022-10-19T09:58:32.941Z,12.84
2022-10-19T10:01:02.741Z,12.95
2022-10-19T10:03:43.733Z,13.02
2022-10-19T10:06:17.183Z,13.00
2022-10-19T10:08:49.014Z,12.98
2022-10-19T10:11:30.434Z,12.95
2022-10-19T10:14:05.023Z,12.93
2022-10-19T10:16:37.073Z,12.84
2022-10-19T10:19:12.841Z,12.65
2022-10-19T10:21:54.768Z,12.43
2022-10-19T10:24:25.507Z,12.28
2022-10-19T10:26:56.664Z,12.19
2022-10-19T10:29:27.099Z,12.10
2022-10-19T10:32:18.688Z,12.08
2022-10-19T10:35:04.586Z,12.12
2022-10-19T10:37:46.037Z,12.14
2022-10-19T10:40:28.035Z,12.17
2022-10-19T10:43:05.141Z,12.09
2022-10-19T10:45:39.437Z,12.01
2022-10-19T10:48:53.411Z,12.06
2022-10-19T10:51:24.513Z,12.08
2022-10-19T10:54:08.952Z,12.11
2022-10-19T10:56:40.619Z,12.08
2022-10-19T10:59:21.822Z,12.04
2022-10-19T11:05:05.027Z,12.12
2022-10-19T11:07:37.105Z,12.30
2022-10-19T11:10:24.499Z,12.47
2022-10-19T11:13:26.143Z,12.64
2022-10-19T11:15:59.415Z,12.70
2022-10-19T11:18:42.345Z,12.77
2022-10-19T11:21:16.877Z,12.74
2022-10-19T11:23:53.678Z,12.72
2022-10-19T11:26:46.407Z,12.74
2022-10-19T11:29:34.415Z,12.81
2022-10-19T11:32:02.332Z,12.84
2022-10-19T11:34:39.143Z,12.88
2022-10-19T11:37:31.833Z,12.86
2022-10-19T11:41:06.122Z,12.89
2022-10-19T11:44:03.365Z,12.95
2022-10-19T11:46:52.176Z,12.90
2022-10-19T11:49:58.710Z,12.89
2022-10-19T11:52:41.863Z,12.93
2022-10-19T11:55:42.770Z,12.98
2022-10-19T11:58:41.747Z,13.00
2022-10-19T12:01:19.728Z,12.96
2022-10-19T12:04:46.551Z,12.92
2022-10-19T12:07:42.375Z,12.98
2022-10-19T12:10:37.569Z,12.97
2022-10-19T12:13:11.771Z,12.91
2022-10-19T12:15:55.689Z,12.86
2022-10-19T12:18:34.223Z,12.82
2022-10-19T12:21:12.954Z,12.79
2022-10-19T12:23:46.767Z,12.80
2022-10-19T12:29:03.372Z,12.85
2022-10-19T12:31:32.788Z,12.82
2022-10-19T12:34:00.554Z,12.85
2022-10-19T12:36:46.949Z,12.89
2022-10-19T12:39:17.529Z,12.84
2022-10-19T12:41:52.106Z,12.81
2022-10-19T12:44:53.747Z,12.75
2022-10-19T12:47:25.197Z,12.61
2022-10-19T12:49:57.781Z,12.53
2022-10-19T12:52:45.313Z,12.49
2022-10-19T12:55:15.933Z,12.47
2022-10-19T12:57:49.419Z,12.45
2022-10-19T13:00:26.270Z,12.43
2022-10-19T13:03:15.237Z,12.44
2022-10-19T13:05:55.204Z,12.42
2022-10-19T13:08:41.764Z,12.42
2022-10-19T13:11:15.556Z,12.42
2022-10-19T13:13:57.091Z,12.43
2022-10-19T13:16:37.172Z,12.48
2022-10-19T13:19:14.019Z,12.55
2022-10-19T13:21:56.810Z,12.62
2022-10-19T13:24:24.471Z,12.68
2022-10-19T13:27:04.347Z,12.74
2022-10-19T13:29:41.418Z,12.83
2022-10-19T13:32:36.690Z,12.85
2022-10-19T13:35:37.640Z,12.84
2022-10-19T13:38:18.407Z,12.82
2022-10-19T13:40:49.043Z,12.81
2022-10-19T13:43:26.062Z,12.80
2022-10-19T13:46:08.104Z,12.78
2022-10-19T13:49:01.001Z,12.73
2022-10-19T13:51:50.726Z,12.66
2022-10-19T13:54:43.163Z,12.60
2022-10-19T13:57:10.835Z,12.55
2022-10-19T13:59:44.612Z,12.52
2022-10-19T14:02:13.019Z,12.50
2022-10-19T14:04:57.459Z,12.44
2022-10-19T14:07:43.545Z,12.36
2022-10-19T14:10:14.897Z,12.32
2022-10-19T14:12:44.919Z,12.23
2022-10-19T14:15:29.703Z,12.18
2022-10-19T14:18:01.268Z,12.21
2022-10-19T14:20:35.038Z,12.26
2022-10-19T14:23:40.276Z,12.27
2022-10-19T14:26:14.985Z,12.24
2022-10-19T14:28:43.468Z,12.20
2022-10-19T14:31:18.916Z,12.17
2022-10-19T14:33:50.258Z,12.06
2022-10-19T14:36:21.512Z,12.01
2022-10-19T14:38:53.298Z,11.97
2022-10-19T14:41:36.417Z,11.96
2022-10-19T14:44:50.514Z,11.86
2022-10-19T14:47:21.624Z,11.81
2022-10-19T14:49:50.131Z,11.75
2022-10-19T14:52:31.563Z,11.70
2022-10-19T14:55:06.391Z,11.68
2022-10-19T14:57:39.361Z,11.62
2022-10-19T15:00:15.411Z,11.56
2022-10-19T15:02:48.128Z,11.42
2022-10-19T15:05:26.788Z,11.35
2022-10-19T15:07:55.619Z,11.26
2022-10-19T15:10:32.325Z,11.18
2022-10-19T15:13:06.378Z,11.12
2022-10-19T15:15:35.980Z,11.04
2022-10-19T15:18:06.703Z,10.97
2022-10-19T15:20:49.553Z,10.89
2022-10-19T15:23:43.297Z,10.82
2022-10-19T15:26:20.174Z,10.76
2022-10-19T15:28:49.072Z,10.69
2022-10-19T15:31:18.688Z,10.62
2022-10-19T15:33:53.357Z,10.55
2022-10-19T15:36:23.483Z,10.52
2022-10-19T15:39:24.852Z,10.47
2022-10-19T15:41:53.456Z,10.42
2022-10-19T15:44:42.507Z,10.34
2022-10-19T15:47:13.243Z,10.27
2022-10-19T15:49:41.114Z,10.19
2022-10-19T15:52:16.745Z,10.09
2022-10-19T15:54:48.207Z,10.03
2022-10-19T15:57:34.287Z,9.99
2022-10-19T16:00:15.478Z,9.96
2022-10-19T16:02:43.704Z,9.93
2022-10-19T16:05:11.832Z,9.92
2022-10-19T16:07:41.449Z,9.92
2022-10-19T16:10:16.839Z,9.91
2022-10-19T16:12:44.641Z,9.88
2022-10-19T16:15:22.154Z,9.86
2022-10-19T16:17:55.973Z,9.84
2022-10-19T16:20:25.874Z,9.79
2022-10-19T16:22:54.448Z,9.76
2022-10-19T16:25:22.407Z,9.79
2022-10-19T16:27:50.402Z,9.82
2022-10-19T16:30:18.149Z,9.85
2022-10-19T16:32:49.318Z,9.86
2022-10-19T16:35:17.190Z,9.85
2022-10-19T16:37:44.953Z,9.83
2022-10-19T16:40:12.844Z,9.79
2022-10-19T16:42:40.596Z,9.76
2022-10-19T16:45:09.287Z,9.80
2022-10-19T16:47:37.005Z,9.81
2022-10-19T16:50:05.857Z,9.82
2022-10-19T16:52:33.989Z,9.77
2022-10-19T16:55:02.415Z,9.76
2022-10-19T16:57:30.176Z,9.72
2022-10-19T16:59:57.947Z,9.72
2022-10-19T17:02:25.680Z,9.70
2022-10-19T17:04:53.482Z,9.67
2022-10-19T17:07:21.395Z,9.63
2022-10-19T17:09:54.518Z,9.60
2022-10-19T17:12:22.827Z,9.55
2022-10-19T17:14:51.351Z,9.50
2022-10-19T17:17:19.287Z,9.51
2022-10-19T17:19:48.290Z,9.50
2022-10-19T17:22:16.268Z,9.44
2022-10-19T17:24:46.287Z,9.35
2022-10-19T17:27:14.508Z,9.28
2022-10-19T17:29:42.943Z,9.26
2022-10-19T17:32:10.700Z,9.31
2022-10-19T17:34:38.476Z,9.32
2022-10-19T17:37:06.206Z,9.27
2022-10-19T17:39:34.017Z,9.27
2022-10-19T17:42:03.343Z,9.25
2022-10-19T17:44:31.891Z,9.23
2022-10-19T17:47:01.114Z,9.20
2022-10-19T17:49:30.169Z,9.16
2022-10-19T17:51:58.435Z,9.17
2022-10-19T17:54:26.596Z,9.18
2022-10-19T17:56:54.541Z,9.17
2022-10-19T17:59:30.230Z,9.17
2022-10-19T18:02:04.821Z,9.16
2022-10-19T18:04:32.753Z,9.16
2022-10-19T18:07:00.533Z,9.18
2022-10-19T18:09:28.424Z,9.19
2022-10-19T18:11:56.307Z,9.14
2022-10-19T18:14:23.988Z,9.07
2022-10-19T18:16:52.177Z,9.08
2022-10-19T18:19:20.014Z,9.07
2022-10-19T18:21:49.255Z,9.06
2022-10-19T18:24:20.338Z,9.06
2022-10-19T18:26:50.479Z,9.02
2022-10-19T18:29:23.663Z,9.01
2022-10-19T18:31:52.491Z,8.99
2022-10-19T18:34:25.872Z,8.95
2022-10-19T18:36:54.402Z,8.94
2022-10-19T18:39:23.051Z,8.91
2022-10-19T18:41:54.577Z,8.87
2022-10-19T18:44:26.513Z,8.84
2022-10-19T18:46:57.103Z,8.79
2022-10-19T18:49:26.035Z,8.81
2022-10-19T18:51:55.720Z,8.78
2022-10-19T18:54:26.404Z,8.74
2022-10-19T18:56:54.822Z,8.69
2022-10-19T18:59:23.162Z,8.69
2022-10-19T19:01:51.345Z,8.72
2022-10-19T19:04:19.246Z,8.70
2022-10-19T19:06:46.974Z,8.67
2022-10-19T19:09:14.784Z,8.68
2022-10-19T19:11:42.655Z,8.70
2022-10-19T19:14:14.798Z,8.72
2022-10-19T19:16:44.476Z,8.71
2022-10-19T19:19:14.047Z,8.64
2022-10-19T19:21:44.368Z,8.59
2022-10-19T19:24:16.034Z,8.59
2022-10-19T19:26:48.497Z,8.57
2022-10-19T19:29:17.195Z,8.57
2022-10-19T19:31:45.068Z,8.55
2022-10-19T19:34:12.945Z,8.52
2022-10-19T19:36:48.231Z,8.48
2022-10-19T19:39:20.522Z,8.48
2022-10-19T19:41:49.910Z,8.44
2022-10-19T19:44:18.442Z,8.40
2022-10-19T19:46:46.565Z,8.36
2022-10-19T19:49:14.706Z,8.29
2022-10-19T19:51:42.875Z,8.24
2022-10-19T19:54:11.557Z,8.21
2022-10-19T19:56:40.166Z,8.17
2022-10-19T19:59:10.258Z,8.06
2022-10-19T20:01:39.557Z,8.00
2022-10-19T20:04:07.450Z,7.98
2022-10-19T20:06:37.651Z,7.93
2022-10-19T20:09:07.646Z,7.88
2022-10-19T20:11:38.462Z,7.85
2022-10-19T20:14:10.836Z,7.86
2022-10-19T20:16:38.717Z,7.89
2022-10-19T20:19:12.321Z,7.91
2022-10-19T20:21:41.278Z,7.94
2022-10-19T20:24:09.797Z,7.92
2022-10-19T20:26:38.201Z,7.94
2022-10-19T20:29:06.508Z,7.93
2022-10-19T20:31:39.468Z,7.92
2022-10-19T20:34:13.947Z,7.90
2022-10-19T20:36:42.216Z,7.83
2022-10-19T20:39:10.418Z,7.83
2022-10-19T20:41:38.263Z,7.84
2022-10-19T20:44:06.240Z,7.85
2022-10-19T20:46:34.132Z,7.88
2022-10-19T20:49:02.240Z,7.86
2022-10-19T20:51:33.604Z,7.82
2022-10-19T20:54:03.801Z,7.82
2022-10-19T20:56:34.970Z,7.80
2022-10-19T20:59:08.285Z,7.77
2022-10-19T21:01:38.263Z,7.75
2022-10-19T21:04:08.856Z,7.75
2022-10-19T21:06:42.195Z,7.77
2022-10-19T21:09:10.637Z,7.79
2022-10-19T21:11:40.482Z,7.81
2022-10-19T21:14:13.809Z,7.76
2022-10-19T21:16:42.540Z,7.70
2022-10-19T21:19:22.266Z,7.72
2022-10-19T21:21:52.867Z,7.69
2022-10-19T21:24:23.939Z,7.66
2022-10-19T21:29:25.120Z,7.50
2022-10-19T21:31:53.815Z,7.47
2022-10-19T21:34:24.456Z,7.42
2022-10-19T21:36:52.623Z,7.43
2022-10-19T21:39:20.905Z,7.40
2022-10-19T21:41:49.009Z,7.34
2022-10-19T21:44:18.070Z,7.34
2022-10-19T21:46:49.533Z,7.28
2022-10-19T21:49:17.509Z,7.26
2022-10-19T21:51:51.209Z,7.28
2022-10-19T21:54:21.233Z,7.25
2022-10-19T21:56:49.204Z,7.25
2022-10-19T21:59:18.098Z,7.27
2022-10-19T22:01:46.788Z,7.29
2022-10-19T22:04:17.203Z,7.29
2022-10-19T22:06:45.314Z,7.29
2022-10-19T22:09:19.615Z,7.32
2022-10-19T22:11:48.232Z,7.35
2022-10-19T22:14:16.957Z,7.24
2022-10-19T22:16:44.962Z,7.18
2022-10-19T22:19:13.494Z,7.16
2022-10-19T22:21:41.373Z,7.15
2022-10-19T22:24:13.597Z,7.16
2022-10-19T22:26:44.710Z,7.15
2022-10-19T22:29:12.804Z,7.10
2022-10-19T22:31:40.882Z,7.08
2022-10-19T22:34:12.426Z,7.09
2022-10-19T22:36:40.289Z,6.95
2022-10-19T22:39:08.339Z,6.87
2022-10-19T22:41:36.061Z,6.77
2022-10-19T22:44:03.962Z,6.75
2022-10-19T22:46:31.639Z,6.80
2022-10-19T22:48:59.491Z,6.79
2022-10-19T22:51:27.527Z,6.81
2022-10-19T22:53:55.321Z,6.78
2022-10-19T22:56:23.079Z,6.73
2022-10-19T22:58:50.751Z,6.71
2022-10-19T23:01:19.257Z,6.65
2022-10-19T23:03:47.203Z,6.58
2022-10-19T23:06:15.790Z,6.49
2022-10-19T23:08:44.853Z,6.47
2022-10-19T23:11:13.258Z,6.46
2022-10-19T23:13:41.760Z,6.44
2022-10-19T23:16:09.900Z,6.39
2022-10-19T23:18:39.648Z,6.32
2022-10-19T23:21:10.590Z,6.30
2022-10-19T23:23:39.286Z,6.26
2022-10-19T23:26:15.731Z,6.23
2022-10-19T23:28:45.357Z,6.24
2022-10-19T23:31:16.642Z,6.23
2022-10-19T23:33:45.603Z,6.27
2022-10-19T23:36:16.514Z,6.30
2022-10-19T23:38:45.320Z,6.35
2022-10-19T23:41:13.923Z,6.42
2022-10-19T23:43:41.897Z,6.44
2022-10-19T23:46:10.688Z,6.46
2022-10-19T23:48:39.504Z,6.51
2022-10-19T23:51:10.221Z,6.55
2022-10-19T23:53:41.292Z,6.53
2022-10-19T23:56:18.534Z,6.55
2022-10-19T23:58:46.967Z,6.53
